VXP684 KRDU-KROC
Flight info
| Callsign | VXP684 |
|---|---|
| Flight time | 1h 8m |
| Altitude | 33000 |
| Route | OXFRD5 CARML BBDOL STPBY AML Q227 STUBN GIBBE |
| Aircraft | B738/M-SDE2E3FGHIRWXY/LB1 |
Departure
| Time | 2026-05-07 04:44 |
|---|---|
| Airport | Raleigh-Durham International Airport (KRDU) |
Arrival
| Time | 2026-05-07 05:52 |
|---|---|
| Airport | Frederick Douglass Greater Rochester International Airport (KROC) |
| Time | Latitude | Longitude | Altitude | Speed | Heading |
|---|---|---|---|---|---|
| 2026-05-07 04:32 | 35.87335 | -78.79012 | 434 ft | 0 kts | 315° |
| 2026-05-07 04:37 | 35.87323 | -78.78998 | 424 ft | 4 kts | 316° |
| 2026-05-07 04:38 | 35.87303 | -78.78976 | 432 ft | 4 kts | 327° |
| 2026-05-07 04:38 | 35.87282 | -78.78963 | 434 ft | 1 kts | 345° |
| 2026-05-07 04:38 | 35.87281 | -78.78963 | 434 ft | 0 kts | 345° |
| 2026-05-07 04:40 | 35.87284 | -78.78962 | 434 ft | 1 kts | 8° |
| 2026-05-07 04:40 | 35.87296 | -78.78929 | 434 ft | 9 kts | 70° |
| 2026-05-07 04:41 | 35.87344 | -78.78839 | 428 ft | 17 kts | 45° |
| 2026-05-07 04:41 | 35.87437 | -78.78724 | 434 ft | 19 kts | 45° |
| 2026-05-07 04:41 | 35.87531 | -78.78609 | 434 ft | 19 kts | 45° |
| 2026-05-07 04:41 | 35.87621 | -78.78498 | 434 ft | 18 kts | 45° |
| 2026-05-07 04:42 | 35.87709 | -78.78390 | 429 ft | 17 kts | 45° |
| 2026-05-07 04:42 | 35.87793 | -78.78286 | 430 ft | 17 kts | 46° |
| 2026-05-07 04:42 | 35.87872 | -78.78187 | 429 ft | 16 kts | 45° |
| 2026-05-07 04:42 | 35.87950 | -78.78090 | 434 ft | 16 kts | 45° |
| 2026-05-07 04:43 | 35.87938 | -78.77983 | 429 ft | 15 kts | 137° |
| 2026-05-07 04:43 | 35.87817 | -78.78064 | 429 ft | 47 kts | 225° |
| 2026-05-07 04:43 | 35.87395 | -78.78585 | 434 ft | 122 kts | 225° |
| 2026-05-07 04:43 | 35.86656 | -78.79495 | 638 ft | 166 kts | 225° |
| 2026-05-07 04:44 | 35.85772 | -78.80564 | 1262 ft | 185 kts | 226° |
| 2026-05-07 04:44 | 35.85110 | -78.81983 | 1910 ft | 202 kts | 264° |
| 2026-05-07 04:44 | 35.85383 | -78.83723 | 2390 ft | 219 kts | 289° |
| 2026-05-07 04:44 | 35.86133 | -78.85485 | 2632 ft | 248 kts | 304° |
| 2026-05-07 04:45 | 35.87504 | -78.86900 | 3292 ft | 268 kts | 328° |
| 2026-05-07 04:45 | 35.89353 | -78.87498 | 4074 ft | 284 kts | 355° |
| 2026-05-07 04:45 | 35.91276 | -78.87107 | 5040 ft | 289 kts | 15° |
| 2026-05-07 04:45 | 35.93149 | -78.86143 | 5893 ft | 293 kts | 21° |
| 2026-05-07 04:46 | 35.95005 | -78.85022 | 6658 ft | 300 kts | 23° |
| 2026-05-07 04:46 | 35.96882 | -78.83862 | 7424 ft | 305 kts | 22° |
| 2026-05-07 04:46 | 35.98796 | -78.82691 | 8177 ft | 309 kts | 22° |
| 2026-05-07 04:46 | 36.00731 | -78.81526 | 8990 ft | 310 kts | 21° |
| 2026-05-07 04:47 | 36.02688 | -78.80364 | 9754 ft | 314 kts | 20° |
| 2026-05-07 04:47 | 36.04679 | -78.79196 | 10389 ft | 323 kts | 20° |
| 2026-05-07 04:47 | 36.06785 | -78.77975 | 10579 ft | 346 kts | 20° |
| 2026-05-07 04:47 | 36.09032 | -78.76675 | 10773 ft | 368 kts | 21° |
| 2026-05-07 04:48 | 36.11416 | -78.75295 | 10922 ft | 389 kts | 21° |
| 2026-05-07 04:48 | 36.13922 | -78.73842 | 11150 ft | 405 kts | 21° |
| 2026-05-07 04:48 | 36.16493 | -78.72344 | 11642 ft | 411 kts | 21° |
| 2026-05-07 04:48 | 36.19091 | -78.70830 | 12238 ft | 414 kts | 22° |
| 2026-05-07 04:49 | 36.21711 | -78.69303 | 12851 ft | 418 kts | 21° |
| 2026-05-07 04:49 | 36.24353 | -78.67768 | 13423 ft | 421 kts | 21° |
| 2026-05-07 04:49 | 36.27015 | -78.66218 | 13973 ft | 425 kts | 21° |
| 2026-05-07 04:49 | 36.29704 | -78.64653 | 14528 ft | 428 kts | 21° |
| 2026-05-07 04:50 | 36.32410 | -78.63077 | 15050 ft | 431 kts | 20° |
| 2026-05-07 04:50 | 36.35139 | -78.61489 | 15517 ft | 436 kts | 20° |
| 2026-05-07 04:50 | 36.37959 | -78.60124 | 15995 ft | 434 kts | 11° |
| 2026-05-07 04:50 | 36.40875 | -78.59138 | 16491 ft | 435 kts | 8° |
| 2026-05-07 04:51 | 36.43818 | -78.58190 | 16956 ft | 439 kts | 8° |
| 2026-05-07 04:51 | 36.46777 | -78.57192 | 17409 ft | 443 kts | 9° |
| 2026-05-07 04:51 | 36.49720 | -78.56163 | 17836 ft | 447 kts | 9° |
| 2026-05-07 04:51 | 36.52719 | -78.55091 | 18297 ft | 450 kts | 9° |
| 2026-05-07 04:52 | 36.55736 | -78.54004 | 18739 ft | 452 kts | 9° |
| 2026-05-07 04:52 | 36.58759 | -78.52911 | 19162 ft | 454 kts | 9° |
| 2026-05-07 04:52 | 36.61808 | -78.51811 | 19575 ft | 456 kts | 9° |
| 2026-05-07 04:52 | 36.64862 | -78.50711 | 19985 ft | 459 kts | 9° |
| 2026-05-07 04:53 | 36.67939 | -78.49603 | 20362 ft | 462 kts | 9° |
| 2026-05-07 04:53 | 36.71029 | -78.48490 | 20768 ft | 463 kts | 9° |
| 2026-05-07 04:53 | 36.74118 | -78.47347 | 21271 ft | 463 kts | 12° |
| 2026-05-07 04:53 | 36.77079 | -78.45607 | 21565 ft | 479 kts | 26° |
| 2026-05-07 04:54 | 36.79884 | -78.43336 | 21908 ft | 484 kts | 28° |
| 2026-05-07 04:54 | 36.82656 | -78.40970 | 22508 ft | 480 kts | 29° |
| 2026-05-07 04:54 | 36.85420 | -78.38600 | 22718 ft | 486 kts | 28° |
| 2026-05-07 04:54 | 36.88225 | -78.36232 | 23083 ft | 486 kts | 28° |
| 2026-05-07 04:55 | 36.90099 | -78.34671 | 23168 ft | 491 kts | 27° |
| 2026-05-07 04:55 | 36.92975 | -78.32304 | 23232 ft | 499 kts | 27° |
| 2026-05-07 04:55 | 36.95893 | -78.29925 | 23458 ft | 502 kts | 27° |
| 2026-05-07 04:55 | 36.98820 | -78.27542 | 23785 ft | 502 kts | 27° |
| 2026-05-07 04:56 | 37.01753 | -78.25155 | 24081 ft | 504 kts | 27° |
| 2026-05-07 04:56 | 37.04697 | -78.22757 | 24296 ft | 507 kts | 27° |
| 2026-05-07 04:56 | 37.07663 | -78.20339 | 24531 ft | 509 kts | 27° |
| 2026-05-07 04:56 | 37.10637 | -78.17909 | 24728 ft | 513 kts | 27° |
| 2026-05-07 04:57 | 37.13626 | -78.15462 | 25001 ft | 513 kts | 27° |
| 2026-05-07 04:57 | 37.16588 | -78.13029 | 25629 ft | 506 kts | 27° |
| 2026-05-07 04:57 | 37.19515 | -78.10624 | 26186 ft | 502 kts | 26° |
| 2026-05-07 04:57 | 37.22463 | -78.08205 | 26301 ft | 509 kts | 27° |
| 2026-05-07 04:58 | 37.25448 | -78.05760 | 26355 ft | 516 kts | 27° |
| 2026-05-07 04:58 | 37.28464 | -78.03282 | 26644 ft | 517 kts | 27° |
| 2026-05-07 04:58 | 37.31457 | -78.00812 | 27080 ft | 515 kts | 27° |
| 2026-05-07 04:58 | 37.34471 | -77.98330 | 27167 ft | 521 kts | 27° |
| 2026-05-07 04:59 | 37.37588 | -77.96045 | 27470 ft | 512 kts | 16° |
| 2026-05-07 04:59 | 37.40877 | -77.94474 | 27886 ft | 503 kts | 10° |
| 2026-05-07 04:59 | 37.44209 | -77.93118 | 28042 ft | 505 kts | 9° |
| 2026-05-07 04:59 | 37.47570 | -77.91773 | 28250 ft | 508 kts | 9° |
| 2026-05-07 05:00 | 37.50935 | -77.90359 | 28554 ft | 510 kts | 10° |
| 2026-05-07 05:00 | 37.54291 | -77.88882 | 28802 ft | 512 kts | 11° |
| 2026-05-07 05:00 | 37.57612 | -77.87393 | 29032 ft | 514 kts | 11° |
| 2026-05-07 05:00 | 37.61018 | -77.86257 | 29290 ft | 498 kts | 358° |
| 2026-05-07 05:01 | 37.64403 | -77.86149 | 29604 ft | 478 kts | 344° |
| 2026-05-07 05:01 | 37.67610 | -77.86838 | 30010 ft | 459 kts | 334° |
| 2026-05-07 05:01 | 37.70537 | -77.88208 | 30392 ft | 443 kts | 324° |
| 2026-05-07 05:01 | 37.73345 | -77.89787 | 30761 ft | 441 kts | 324° |
| 2026-05-07 05:02 | 37.76151 | -77.91339 | 31194 ft | 438 kts | 324° |
| 2026-05-07 05:02 | 37.78936 | -77.92846 | 31666 ft | 434 kts | 324° |
| 2026-05-07 05:02 | 37.81701 | -77.94323 | 32140 ft | 430 kts | 324° |
| 2026-05-07 05:02 | 37.83950 | -77.95522 | 32434 ft | 428 kts | 324° |
| 2026-05-07 05:03 | 37.85426 | -77.96309 | 32613 ft | 427 kts | 324° |
| 2026-05-07 05:03 | 37.88232 | -77.97632 | 32871 ft | 441 kts | 333° |
| 2026-05-07 05:03 | 37.91361 | -77.98133 | 32910 ft | 467 kts | 347° |
| 2026-05-07 05:03 | 37.94653 | -77.97710 | 32904 ft | 489 kts | 1° |
| 2026-05-07 05:04 | 37.97940 | -77.96296 | 32941 ft | 504 kts | 9° |
| 2026-05-07 05:04 | 38.01203 | -77.94603 | 32916 ft | 508 kts | 11° |
| 2026-05-07 05:04 | 38.07730 | -77.91104 | 32918 ft | 510 kts | 11° |
| 2026-05-07 05:05 | 38.14291 | -77.87661 | 32912 ft | 510 kts | 10° |
| 2026-05-07 05:05 | 38.20870 | -77.84277 | 32916 ft | 510 kts | 10° |
| 2026-05-07 05:06 | 38.27449 | -77.80914 | 32927 ft | 510 kts | 9° |
| 2026-05-07 05:06 | 38.34031 | -77.77534 | 32932 ft | 510 kts | 10° |
| 2026-05-07 05:07 | 38.40569 | -77.74179 | 32917 ft | 510 kts | 10° |
| 2026-05-07 05:07 | 38.47194 | -77.70786 | 32955 ft | 508 kts | 11° |
| 2026-05-07 05:08 | 38.53699 | -77.67306 | 32941 ft | 509 kts | 10° |
| 2026-05-07 05:08 | 38.60262 | -77.63982 | 32944 ft | 511 kts | 9° |
| 2026-05-07 05:09 | 38.66855 | -77.60603 | 32940 ft | 511 kts | 10° |
| 2026-05-07 05:09 | 38.73453 | -77.57167 | 32950 ft | 512 kts | 10° |
| 2026-05-07 05:10 | 38.80059 | -77.53722 | 32944 ft | 513 kts | 9° |
| 2026-05-07 05:10 | 38.86673 | -77.50269 | 32944 ft | 513 kts | 10° |
| 2026-05-07 05:11 | 38.93334 | -77.47226 | 32934 ft | 496 kts | 359° |
| 2026-05-07 05:11 | 38.96678 | -77.46522 | 32936 ft | 479 kts | 349° |
| 2026-05-07 05:11 | 38.99954 | -77.46421 | 32950 ft | 469 kts | 345° |
| 2026-05-07 05:12 | 39.06496 | -77.46417 | 32946 ft | 471 kts | 345° |
| 2026-05-07 05:12 | 39.13062 | -77.46368 | 32954 ft | 473 kts | 346° |
| 2026-05-07 05:13 | 39.19656 | -77.46269 | 32955 ft | 475 kts | 346° |
| 2026-05-07 05:13 | 39.26273 | -77.46152 | 32957 ft | 476 kts | 346° |
| 2026-05-07 05:14 | 39.32905 | -77.46035 | 32949 ft | 477 kts | 346° |
| 2026-05-07 05:14 | 39.39541 | -77.45921 | 32956 ft | 477 kts | 346° |
| 2026-05-07 05:15 | 39.46181 | -77.45808 | 32960 ft | 477 kts | 346° |
| 2026-05-07 05:15 | 39.52823 | -77.45693 | 32962 ft | 478 kts | 346° |
| 2026-05-07 05:16 | 39.59475 | -77.45583 | 32956 ft | 477 kts | 345° |
| 2026-05-07 05:16 | 39.66113 | -77.45468 | 32926 ft | 477 kts | 346° |
| 2026-05-07 05:17 | 39.72698 | -77.45364 | 32921 ft | 476 kts | 345° |
| 2026-05-07 05:17 | 39.79323 | -77.45266 | 32930 ft | 476 kts | 345° |
| 2026-05-07 05:18 | 39.85948 | -77.45163 | 32930 ft | 476 kts | 345° |
| 2026-05-07 05:18 | 39.92604 | -77.45060 | 32952 ft | 475 kts | 345° |
| 2026-05-07 05:19 | 39.99223 | -77.44915 | 32944 ft | 476 kts | 345° |
| 2026-05-07 05:19 | 40.05845 | -77.44798 | 32941 ft | 477 kts | 345° |
| 2026-05-07 05:20 | 40.12449 | -77.44670 | 32948 ft | 478 kts | 345° |
| 2026-05-07 05:20 | 40.19115 | -77.44543 | 32951 ft | 480 kts | 345° |
| 2026-05-07 05:21 | 40.29150 | -77.44375 | 32955 ft | 480 kts | 345° |
| 2026-05-07 05:22 | 40.35835 | -77.44266 | 32955 ft | 481 kts | 345° |
| 2026-05-07 05:22 | 40.42525 | -77.44149 | 32957 ft | 480 kts | 345° |
| 2026-05-07 05:23 | 40.49206 | -77.44030 | 32959 ft | 480 kts | 345° |
| 2026-05-07 05:23 | 40.55880 | -77.43916 | 32957 ft | 479 kts | 344° |
| 2026-05-07 05:24 | 40.62542 | -77.43803 | 32969 ft | 478 kts | 344° |
| 2026-05-07 05:24 | 40.69179 | -77.43732 | 32958 ft | 476 kts | 344° |
| 2026-05-07 05:25 | 40.75880 | -77.43232 | 32966 ft | 500 kts | 355° |
| 2026-05-07 05:25 | 40.82731 | -77.41077 | 32972 ft | 508 kts | 359° |
| 2026-05-07 05:26 | 40.89580 | -77.38876 | 32971 ft | 504 kts | 358° |
| 2026-05-07 05:26 | 40.96403 | -77.36838 | 32960 ft | 502 kts | 357° |
| 2026-05-07 05:27 | 41.03223 | -77.34819 | 32960 ft | 502 kts | 357° |
| 2026-05-07 05:27 | 41.10039 | -77.32788 | 32960 ft | 502 kts | 357° |
| 2026-05-07 05:28 | 41.16842 | -77.30757 | 32975 ft | 501 kts | 357° |
| 2026-05-07 05:28 | 41.23612 | -77.28707 | 32955 ft | 502 kts | 357° |
| 2026-05-07 05:29 | 41.30422 | -77.26674 | 32945 ft | 502 kts | 357° |
| 2026-05-07 05:29 | 41.37246 | -77.24599 | 32960 ft | 503 kts | 357° |
| 2026-05-07 05:30 | 41.44096 | -77.22519 | 32690 ft | 509 kts | 356° |
| 2026-05-07 05:30 | 41.47563 | -77.21501 | 32093 ft | 510 kts | 357° |
| 2026-05-07 05:30 | 41.51025 | -77.20457 | 31443 ft | 510 kts | 357° |
| 2026-05-07 05:30 | 41.54488 | -77.19392 | 30714 ft | 511 kts | 358° |
| 2026-05-07 05:31 | 41.57937 | -77.18317 | 30023 ft | 509 kts | 358° |
| 2026-05-07 05:31 | 41.61391 | -77.17277 | 29279 ft | 509 kts | 358° |
| 2026-05-07 05:31 | 41.64852 | -77.16233 | 28490 ft | 510 kts | 359° |
| 2026-05-07 05:31 | 41.68304 | -77.15179 | 27932 ft | 506 kts | 359° |
| 2026-05-07 05:32 | 41.71718 | -77.14121 | 27349 ft | 501 kts | 0° |
| 2026-05-07 05:32 | 41.75099 | -77.13067 | 26797 ft | 496 kts | 360° |
| 2026-05-07 05:32 | 41.78440 | -77.12030 | 26256 ft | 491 kts | 359° |
| 2026-05-07 05:32 | 41.81756 | -77.10999 | 25700 ft | 487 kts | 360° |
| 2026-05-07 05:33 | 41.85035 | -77.09986 | 25163 ft | 481 kts | 360° |
| 2026-05-07 05:33 | 41.88282 | -77.08964 | 24614 ft | 479 kts | 0° |
| 2026-05-07 05:33 | 41.91499 | -77.07952 | 24085 ft | 473 kts | 360° |
| 2026-05-07 05:33 | 41.94695 | -77.06988 | 23550 ft | 468 kts | 360° |
| 2026-05-07 05:34 | 41.97860 | -77.06037 | 23007 ft | 464 kts | 0° |
| 2026-05-07 05:34 | 42.00998 | -77.05087 | 22487 ft | 460 kts | 0° |
| 2026-05-07 05:34 | 42.04102 | -77.04134 | 21956 ft | 456 kts | 1° |
| 2026-05-07 05:34 | 42.07186 | -77.03180 | 21431 ft | 453 kts | 2° |
| 2026-05-07 05:35 | 42.10248 | -77.02364 | 20888 ft | 441 kts | 356° |
| 2026-05-07 05:35 | 42.13261 | -77.02105 | 20368 ft | 429 kts | 351° |
| 2026-05-07 05:35 | 42.16228 | -77.01986 | 19852 ft | 425 kts | 351° |
| 2026-05-07 05:35 | 42.19179 | -77.01880 | 19321 ft | 422 kts | 351° |
| 2026-05-07 05:36 | 42.22067 | -77.01763 | 18816 ft | 419 kts | 352° |
| 2026-05-07 05:36 | 42.24967 | -77.01629 | 18317 ft | 416 kts | 352° |
| 2026-05-07 05:36 | 42.27851 | -77.01480 | 17799 ft | 414 kts | 353° |
| 2026-05-07 05:36 | 42.30720 | -77.01324 | 17284 ft | 411 kts | 353° |
| 2026-05-07 05:37 | 42.33565 | -77.01167 | 16783 ft | 408 kts | 353° |
| 2026-05-07 05:37 | 42.36394 | -77.01011 | 16273 ft | 406 kts | 353° |
| 2026-05-07 05:37 | 42.39203 | -77.00856 | 15765 ft | 403 kts | 354° |
| 2026-05-07 05:37 | 42.42001 | -77.00701 | 15254 ft | 400 kts | 354° |
| 2026-05-07 05:38 | 42.44774 | -77.00548 | 14750 ft | 397 kts | 354° |
| 2026-05-07 05:38 | 42.47528 | -77.00395 | 14264 ft | 394 kts | 354° |
| 2026-05-07 05:38 | 42.50254 | -77.00252 | 13754 ft | 390 kts | 353° |
| 2026-05-07 05:38 | 42.52914 | -77.00482 | 13254 ft | 378 kts | 342° |
| 2026-05-07 05:39 | 42.55413 | -77.01321 | 12764 ft | 363 kts | 332° |
| 2026-05-07 05:39 | 42.57748 | -77.02536 | 12330 ft | 357 kts | 331° |
| 2026-05-07 05:39 | 42.60035 | -77.03752 | 11720 ft | 349 kts | 331° |
| 2026-05-07 05:39 | 42.62290 | -77.04955 | 10923 ft | 347 kts | 332° |
| 2026-05-07 05:40 | 42.64471 | -77.06110 | 10796 ft | 325 kts | 332° |
| 2026-05-07 05:40 | 42.66524 | -77.07188 | 10606 ft | 307 kts | 333° |
| 2026-05-07 05:40 | 42.68451 | -77.08201 | 10520 ft | 290 kts | 332° |
| 2026-05-07 05:40 | 42.70298 | -77.09175 | 10402 ft | 281 kts | 332° |
| 2026-05-07 05:41 | 42.72118 | -77.10140 | 10294 ft | 282 kts | 332° |
| 2026-05-07 05:41 | 42.73340 | -77.10789 | 10238 ft | 286 kts | 333° |
| 2026-05-07 05:41 | 42.75774 | -77.12076 | 10071 ft | 279 kts | 333° |
| 2026-05-07 05:41 | 42.77560 | -77.13016 | 9904 ft | 272 kts | 333° |
| 2026-05-07 05:42 | 42.79324 | -77.13947 | 9614 ft | 271 kts | 334° |
| 2026-05-07 05:42 | 42.80508 | -77.14572 | 9477 ft | 269 kts | 334° |
| 2026-05-07 05:42 | 42.82809 | -77.15783 | 9118 ft | 266 kts | 334° |
| 2026-05-07 05:42 | 42.83974 | -77.16400 | 8941 ft | 265 kts | 334° |
| 2026-05-07 05:43 | 42.85666 | -77.17298 | 8690 ft | 264 kts | 334° |
| 2026-05-07 05:43 | 42.87372 | -77.18200 | 8426 ft | 262 kts | 335° |
| 2026-05-07 05:43 | 42.89060 | -77.19097 | 8167 ft | 259 kts | 335° |
| 2026-05-07 05:43 | 42.90737 | -77.19981 | 7915 ft | 257 kts | 335° |
| 2026-05-07 05:44 | 42.92397 | -77.20861 | 7666 ft | 255 kts | 335° |
| 2026-05-07 05:44 | 42.94042 | -77.21733 | 7400 ft | 252 kts | 335° |
| 2026-05-07 05:44 | 42.95669 | -77.22593 | 7143 ft | 250 kts | 334° |
| 2026-05-07 05:44 | 42.97288 | -77.23454 | 6885 ft | 249 kts | 335° |
| 2026-05-07 05:45 | 42.98898 | -77.24306 | 6624 ft | 247 kts | 335° |
| 2026-05-07 05:45 | 43.00502 | -77.25157 | 6356 ft | 247 kts | 335° |
| 2026-05-07 05:45 | 43.02100 | -77.26009 | 6093 ft | 246 kts | 335° |
| 2026-05-07 05:45 | 43.03691 | -77.26855 | 5835 ft | 245 kts | 335° |
| 2026-05-07 05:46 | 43.05276 | -77.27699 | 5569 ft | 244 kts | 335° |
| 2026-05-07 05:46 | 43.06851 | -77.28538 | 5304 ft | 242 kts | 335° |
| 2026-05-07 05:46 | 43.08414 | -77.29368 | 5059 ft | 241 kts | 335° |
| 2026-05-07 05:46 | 43.09974 | -77.30197 | 4793 ft | 240 kts | 335° |
| 2026-05-07 05:47 | 43.11524 | -77.31037 | 4530 ft | 239 kts | 332° |
| 2026-05-07 05:47 | 43.12747 | -77.32466 | 4254 ft | 232 kts | 296° |
| 2026-05-07 05:47 | 43.13052 | -77.34570 | 4151 ft | 224 kts | 272° |
| 2026-05-07 05:47 | 43.13126 | -77.36661 | 4030 ft | 217 kts | 274° |
| 2026-05-07 05:48 | 43.13157 | -77.38694 | 3914 ft | 210 kts | 270° |
| 2026-05-07 05:48 | 43.13117 | -77.40661 | 3816 ft | 203 kts | 269° |
| 2026-05-07 05:48 | 43.13058 | -77.42551 | 3717 ft | 193 kts | 269° |
| 2026-05-07 05:48 | 43.12999 | -77.44324 | 3550 ft | 186 kts | 269° |
| 2026-05-07 05:49 | 43.12944 | -77.46059 | 3323 ft | 178 kts | 269° |
| 2026-05-07 05:49 | 43.12892 | -77.47687 | 3103 ft | 165 kts | 269° |
| 2026-05-07 05:49 | 43.12845 | -77.49189 | 2920 ft | 149 kts | 270° |
| 2026-05-07 05:49 | 43.12803 | -77.50580 | 2709 ft | 145 kts | 269° |
| 2026-05-07 05:50 | 43.12759 | -77.51974 | 2508 ft | 148 kts | 269° |
| 2026-05-07 05:50 | 43.12714 | -77.53382 | 2317 ft | 148 kts | 269° |
| 2026-05-07 05:50 | 43.12671 | -77.54797 | 2120 ft | 150 kts | 269° |
| 2026-05-07 05:50 | 43.12626 | -77.56223 | 1914 ft | 150 kts | 268° |
| 2026-05-07 05:51 | 43.12582 | -77.57663 | 1713 ft | 153 kts | 268° |
| 2026-05-07 05:51 | 43.12538 | -77.59118 | 1513 ft | 153 kts | 268° |
| 2026-05-07 05:51 | 43.12494 | -77.60569 | 1306 ft | 152 kts | 268° |
| 2026-05-07 05:51 | 43.12450 | -77.62011 | 1105 ft | 151 kts | 268° |
| 2026-05-07 05:52 | 43.12407 | -77.63448 | 909 ft | 151 kts | 268° |
| 2026-05-07 05:52 | 43.12364 | -77.64877 | 699 ft | 150 kts | 268° |
| 2026-05-07 05:52 | 43.12322 | -77.66293 | 554 ft | 145 kts | 268° |
| 2026-05-07 05:52 | 43.12298 | -77.67369 | 545 ft | 47 kts | 265° |
| 2026-05-07 05:53 | 43.12284 | -77.67608 | 551 ft | 19 kts | 266° |
| 2026-05-07 05:53 | 43.12323 | -77.67743 | 552 ft | 15 kts | 342° |
| 2026-05-07 05:53 | 43.12396 | -77.67664 | 549 ft | 14 kts | 60° |
| 2026-05-07 05:53 | 43.12445 | -77.67547 | 553 ft | 14 kts | 60° |
| 2026-05-07 05:54 | 43.12493 | -77.67436 | 548 ft | 13 kts | 51° |
| 2026-05-07 05:54 | 43.12568 | -77.67367 | 548 ft | 13 kts | 34° |
| 2026-05-07 05:54 | 43.12575 | -77.67260 | 548 ft | 12 kts | 120° |
| 2026-05-07 05:54 | 43.12529 | -77.67160 | 548 ft | 12 kts | 122° |
| 2026-05-07 05:55 | 43.12508 | -77.67052 | 549 ft | 12 kts | 88° |
| 2026-05-07 05:55 | 43.12512 | -77.66941 | 549 ft | 12 kts | 88° |
| 2026-05-07 05:55 | 43.12546 | -77.66851 | 555 ft | 11 kts | 25° |
| 2026-05-07 05:55 | 43.12623 | -77.66852 | 549 ft | 11 kts | 356° |
| 2026-05-07 05:56 | 43.12692 | -77.66816 | 549 ft | 11 kts | 29° |
| 2026-05-07 05:56 | 43.12718 | -77.66755 | 549 ft | 7 kts | 124° |
| 2026-05-07 05:56 | 43.12698 | -77.66717 | 549 ft | 1 kts | 126° |
| 2026-05-07 05:56 | 43.12696 | -77.66713 | 549 ft | 0 kts | 126° |